sensor_id;sensor_type;location;lat;lon;timestamp;P1;durP1;ratioP1;P2;durP2;ratioP2
29908;SDS011;36247;51.952;6.146;2023-04-24T00:01:27;13.77;;;11.43;;
29908;SDS011;36247;51.952;6.146;2023-04-24T00:03:54;16.88;;;12.13;;
29908;SDS011;36247;51.952;6.146;2023-04-24T00:06:25;18.13;;;14.20;;
29908;SDS011;36247;51.952;6.146;2023-04-24T00:08:59;21.40;;;15.57;;
29908;SDS011;36247;51.952;6.146;2023-04-24T00:11:25;17.55;;;13.68;;
29908;SDS011;36247;51.952;6.146;2023-04-24T00:13:51;20.45;;;16.58;;
29908;SDS011;36247;51.952;6.146;2023-04-24T00:16:17;23.90;;;17.73;;
29908;SDS011;36247;51.952;6.146;2023-04-24T00:18:43;22.13;;;13.93;;
29908;SDS011;36247;51.952;6.146;2023-04-24T00:21:10;23.17;;;18.05;;
29908;SDS011;36247;51.952;6.146;2023-04-24T00:23:36;24.77;;;18.25;;
29908;SDS011;36247;51.952;6.146;2023-04-24T00:26:02;24.95;;;17.67;;
29908;SDS011;36247;51.952;6.146;2023-04-24T00:28:28;18.73;;;13.77;;
29908;SDS011;36247;51.952;6.146;2023-04-24T00:30:53;20.58;;;13.32;;
29908;SDS011;36247;51.952;6.146;2023-04-24T00:33:19;21.35;;;17.10;;
29908;SDS011;36247;51.952;6.146;2023-04-24T00:35:46;25.00;;;18.73;;
29908;SDS011;36247;51.952;6.146;2023-04-24T00:38:11;22.13;;;17.35;;
29908;SDS011;36247;51.952;6.146;2023-04-24T00:40:37;24.35;;;17.63;;
29908;SDS011;36247;51.952;6.146;2023-04-24T00:43:02;19.17;;;11.93;;
29908;SDS011;36247;51.952;6.146;2023-04-24T00:45:28;21.70;;;15.50;;
29908;SDS011;36247;51.952;6.146;2023-04-24T00:47:56;15.45;;;12.02;;
29908;SDS011;36247;51.952;6.146;2023-04-24T00:50:23;19.73;;;15.00;;
29908;SDS011;36247;51.952;6.146;2023-04-24T00:52:49;14.77;;;10.75;;
29908;SDS011;36247;51.952;6.146;2023-04-24T00:55:16;20.10;;;15.43;;
29908;SDS011;36247;51.952;6.146;2023-04-24T00:57:42;20.52;;;12.82;;
29908;SDS011;36247;51.952;6.146;2023-04-24T01:00:11;22.13;;;14.57;;
29908;SDS011;36247;51.952;6.146;2023-04-24T01:02:37;16.60;;;12.93;;
29908;SDS011;36247;51.952;6.146;2023-04-24T01:05:06;17.38;;;12.07;;
29908;SDS011;36247;51.952;6.146;2023-04-24T01:07:35;18.63;;;13.35;;
29908;SDS011;36247;51.952;6.146;2023-04-24T01:10:02;19.67;;;13.40;;
29908;SDS011;36247;51.952;6.146;2023-04-24T01:12:27;17.50;;;11.48;;
29908;SDS011;36247;51.952;6.146;2023-04-24T01:14:54;15.07;;;12.15;;
29908;SDS011;36247;51.952;6.146;2023-04-24T01:17:20;19.75;;;14.65;;
29908;SDS011;36247;51.952;6.146;2023-04-24T01:19:46;17.13;;;12.82;;
29908;SDS011;36247;51.952;6.146;2023-04-24T01:22:15;17.70;;;12.93;;
29908;SDS011;36247;51.952;6.146;2023-04-24T01:24:42;21.35;;;13.85;;
29908;SDS011;36247;51.952;6.146;2023-04-24T01:27:11;17.13;;;12.70;;
29908;SDS011;36247;51.952;6.146;2023-04-24T01:29:38;19.25;;;13.55;;
29908;SDS011;36247;51.952;6.146;2023-04-24T01:32:04;21.75;;;14.73;;
29908;SDS011;36247;51.952;6.146;2023-04-24T01:34:30;18.88;;;14.60;;
29908;SDS011;36247;51.952;6.146;2023-04-24T01:36:56;18.92;;;13.80;;
29908;SDS011;36247;51.952;6.146;2023-04-24T01:39:22;12.18;;;8.98;;
29908;SDS011;36247;51.952;6.146;2023-04-24T01:41:51;20.25;;;14.52;;
29908;SDS011;36247;51.952;6.146;2023-04-24T01:44:18;21.85;;;16.27;;
29908;SDS011;36247;51.952;6.146;2023-04-24T01:46:44;21.05;;;14.25;;
29908;SDS011;36247;51.952;6.146;2023-04-24T01:49:09;22.33;;;14.95;;
29908;SDS011;36247;51.952;6.146;2023-04-24T01:51:38;22.60;;;14.60;;
29908;SDS011;36247;51.952;6.146;2023-04-24T01:54:03;20.52;;;15.23;;
29908;SDS011;36247;51.952;6.146;2023-04-24T01:56:33;23.40;;;15.15;;
29908;SDS011;36247;51.952;6.146;2023-04-24T01:59:00;21.63;;;14.93;;
29908;SDS011;36247;51.952;6.146;2023-04-24T02:01:29;20.35;;;15.15;;
29908;SDS011;36247;51.952;6.146;2023-04-24T02:03:59;18.45;;;12.82;;
29908;SDS011;36247;51.952;6.146;2023-04-24T02:06:24;22.85;;;14.50;;
29908;SDS011;36247;51.952;6.146;2023-04-24T02:08:51;23.80;;;15.23;;
29908;SDS011;36247;51.952;6.146;2023-04-24T02:11:17;25.20;;;17.55;;
29908;SDS011;36247;51.952;6.146;2023-04-24T02:13:44;27.98;;;16.35;;
29908;SDS011;36247;51.952;6.146;2023-04-24T02:16:09;28.50;;;20.30;;
29908;SDS011;36247;51.952;6.146;2023-04-24T02:18:35;24.60;;;13.98;;
29908;SDS011;36247;51.952;6.146;2023-04-24T02:21:01;27.33;;;18.30;;
29908;SDS011;36247;51.952;6.146;2023-04-24T02:23:27;28.70;;;18.65;;
29908;SDS011;36247;51.952;6.146;2023-04-24T02:25:53;29.98;;;18.63;;
29908;SDS011;36247;51.952;6.146;2023-04-24T02:28:18;34.33;;;18.98;;
29908;SDS011;36247;51.952;6.146;2023-04-24T02:30:44;24.40;;;16.58;;
29908;SDS011;36247;51.952;6.146;2023-04-24T02:33:10;28.92;;;19.70;;
29908;SDS011;36247;51.952;6.146;2023-04-24T02:35:36;33.95;;;21.35;;
29908;SDS011;36247;51.952;6.146;2023-04-24T02:38:03;32.55;;;20.17;;
29908;SDS011;36247;51.952;6.146;2023-04-24T02:40:29;27.60;;;18.90;;
29908;SDS011;36247;51.952;6.146;2023-04-24T02:42:54;31.92;;;17.35;;
29908;SDS011;36247;51.952;6.146;2023-04-24T02:45:20;23.65;;;16.92;;
29908;SDS011;36247;51.952;6.146;2023-04-24T02:47:46;26.95;;;18.30;;
29908;SDS011;36247;51.952;6.146;2023-04-24T02:50:11;26.35;;;16.88;;
29908;SDS011;36247;51.952;6.146;2023-04-24T02:52:37;24.00;;;18.00;;
29908;SDS011;36247;51.952;6.146;2023-04-24T02:55:03;23.27;;;16.63;;
29908;SDS011;36247;51.952;6.146;2023-04-24T02:57:30;24.63;;;17.10;;
29908;SDS011;36247;51.952;6.146;2023-04-24T02:59:56;19.27;;;14.60;;
29908;SDS011;36247;51.952;6.146;2023-04-24T03:02:21;26.08;;;17.45;;
29908;SDS011;36247;51.952;6.146;2023-04-24T03:04:47;25.15;;;16.33;;
29908;SDS011;36247;51.952;6.146;2023-04-24T03:07:15;25.63;;;16.58;;
29908;SDS011;36247;51.952;6.146;2023-04-24T03:09:42;29.88;;;18.67;;
29908;SDS011;36247;51.952;6.146;2023-04-24T03:12:08;30.67;;;17.92;;
29908;SDS011;36247;51.952;6.146;2023-04-24T03:14:34;26.50;;;16.58;;
29908;SDS011;36247;51.952;6.146;2023-04-24T03:16:59;32.47;;;20.75;;
29908;SDS011;36247;51.952;6.146;2023-04-24T03:19:25;40.50;;;24.17;;
29908;SDS011;36247;51.952;6.146;2023-04-24T03:22:02;39.25;;;25.15;;
29908;SDS011;36247;51.952;6.146;2023-04-24T03:24:29;32.38;;;21.52;;
29908;SDS011;36247;51.952;6.146;2023-04-24T03:26:56;39.47;;;26.92;;
29908;SDS011;36247;51.952;6.146;2023-04-24T03:29:41;39.83;;;26.00;;
29908;SDS011;36247;51.952;6.146;2023-04-24T03:32:08;43.30;;;27.55;;
29908;SDS011;36247;51.952;6.146;2023-04-24T03:34:36;34.78;;;21.67;;
29908;SDS011;36247;51.952;6.146;2023-04-24T03:37:03;39.45;;;24.52;;
29908;SDS011;36247;51.952;6.146;2023-04-24T03:39:33;50.97;;;29.33;;
29908;SDS011;36247;51.952;6.146;2023-04-24T03:41:59;46.65;;;32.63;;
29908;SDS011;36247;51.952;6.146;2023-04-24T03:44:35;49.63;;;31.45;;
29908;SDS011;36247;51.952;6.146;2023-04-24T03:47:02;47.28;;;32.33;;
29908;SDS011;36247;51.952;6.146;2023-04-24T03:49:30;48.42;;;30.02;;
29908;SDS011;36247;51.952;6.146;2023-04-24T03:51:56;44.10;;;28.02;;
29908;SDS011;36247;51.952;6.146;2023-04-24T03:54:24;45.08;;;30.88;;
29908;SDS011;36247;51.952;6.146;2023-04-24T03:56:51;44.03;;;28.42;;
29908;SDS011;36247;51.952;6.146;2023-04-24T03:59:17;50.83;;;31.25;;
29908;SDS011;36247;51.952;6.146;2023-04-24T04:01:47;42.60;;;29.40;;
29908;SDS011;36247;51.952;6.146;2023-04-24T04:04:15;45.80;;;31.83;;
29908;SDS011;36247;51.952;6.146;2023-04-24T04:06:43;49.42;;;33.72;;
29908;SDS011;36247;51.952;6.146;2023-04-24T04:09:10;36.50;;;21.27;;
29908;SDS011;36247;51.952;6.146;2023-04-24T04:11:37;50.42;;;33.65;;
29908;SDS011;36247;51.952;6.146;2023-04-24T04:14:04;48.17;;;32.63;;
29908;SDS011;36247;51.952;6.146;2023-04-24T04:16:34;50.05;;;32.45;;
29908;SDS011;36247;51.952;6.146;2023-04-24T04:19:02;39.58;;;27.35;;
29908;SDS011;36247;51.952;6.146;2023-04-24T04:21:29;52.55;;;33.25;;
29908;SDS011;36247;51.952;6.146;2023-04-24T04:24:05;48.80;;;30.73;;
29908;SDS011;36247;51.952;6.146;2023-04-24T04:26:36;52.13;;;30.95;;
29908;SDS011;36247;51.952;6.146;2023-04-24T04:29:06;49.55;;;31.45;;
29908;SDS011;36247;51.952;6.146;2023-04-24T04:31:35;48.35;;;32.47;;
29908;SDS011;36247;51.952;6.146;2023-04-24T04:34:05;45.80;;;29.75;;
29908;SDS011;36247;51.952;6.146;2023-04-24T04:36:33;50.33;;;31.77;;
29908;SDS011;36247;51.952;6.146;2023-04-24T04:39:15;50.97;;;30.85;;
29908;SDS011;36247;51.952;6.146;2023-04-24T04:41:56;46.22;;;29.85;;
29908;SDS011;36247;51.952;6.146;2023-04-24T04:44:25;47.67;;;29.40;;
29908;SDS011;36247;51.952;6.146;2023-04-24T04:46:52;46.33;;;30.27;;
29908;SDS011;36247;51.952;6.146;2023-04-24T04:49:31;48.25;;;31.30;;
29908;SDS011;36247;51.952;6.146;2023-04-24T04:52:00;52.22;;;31.80;;
29908;SDS011;36247;51.952;6.146;2023-04-24T04:54:27;54.10;;;32.47;;
29908;SDS011;36247;51.952;6.146;2023-04-24T04:56:53;53.67;;;32.17;;
29908;SDS011;36247;51.952;6.146;2023-04-24T04:59:19;48.05;;;29.70;;
29908;SDS011;36247;51.952;6.146;2023-04-24T05:01:47;51.45;;;30.05;;
29908;SDS011;36247;51.952;6.146;2023-04-24T05:04:14;50.97;;;28.33;;
29908;SDS011;36247;51.952;6.146;2023-04-24T05:06:40;44.03;;;26.73;;
29908;SDS011;36247;51.952;6.146;2023-04-24T05:09:05;45.20;;;27.35;;
29908;SDS011;36247;51.952;6.146;2023-04-24T05:11:45;43.25;;;28.05;;
29908;SDS011;36247;51.952;6.146;2023-04-24T05:14:11;40.08;;;26.17;;
29908;SDS011;36247;51.952;6.146;2023-04-24T05:16:39;40.50;;;23.40;;
29908;SDS011;36247;51.952;6.146;2023-04-24T05:19:07;42.65;;;26.58;;
29908;SDS011;36247;51.952;6.146;2023-04-24T05:21:39;41.38;;;24.00;;
29908;SDS011;36247;51.952;6.146;2023-04-24T05:24:07;38.88;;;26.15;;
29908;SDS011;36247;51.952;6.146;2023-04-24T05:26:59;39.15;;;24.13;;
29908;SDS011;36247;51.952;6.146;2023-04-24T05:29:33;36.20;;;23.02;;
29908;SDS011;36247;51.952;6.146;2023-04-24T05:31:59;40.30;;;25.60;;
29908;SDS011;36247;51.952;6.146;2023-04-24T05:34:28;36.63;;;23.45;;
29908;SDS011;36247;51.952;6.146;2023-04-24T05:36:55;35.10;;;21.83;;
29908;SDS011;36247;51.952;6.146;2023-04-24T05:39:20;45.75;;;23.98;;
29908;SDS011;36247;51.952;6.146;2023-04-24T05:41:46;41.15;;;24.15;;
29908;SDS011;36247;51.952;6.146;2023-04-24T05:44:12;37.25;;;23.10;;
29908;SDS011;36247;51.952;6.146;2023-04-24T05:46:38;38.42;;;22.65;;
29908;SDS011;36247;51.952;6.146;2023-04-24T05:49:05;34.50;;;19.80;;
29908;SDS011;36247;51.952;6.146;2023-04-24T05:51:33;29.48;;;20.70;;
29908;SDS011;36247;51.952;6.146;2023-04-24T05:53:59;32.42;;;20.23;;
29908;SDS011;36247;51.952;6.146;2023-04-24T05:56:25;40.60;;;23.23;;
29908;SDS011;36247;51.952;6.146;2023-04-24T05:58:51;39.45;;;23.70;;
29908;SDS011;36247;51.952;6.146;2023-04-24T06:01:17;28.73;;;20.10;;
29908;SDS011;36247;51.952;6.146;2023-04-24T06:03:51;31.20;;;20.45;;
29908;SDS011;36247;51.952;6.146;2023-04-24T06:06:17;29.02;;;18.98;;
29908;SDS011;36247;51.952;6.146;2023-04-24T06:08:44;29.60;;;18.38;;
29908;SDS011;36247;51.952;6.146;2023-04-24T06:11:11;23.60;;;16.75;;
29908;SDS011;36247;51.952;6.146;2023-04-24T06:13:38;24.50;;;16.50;;
29908;SDS011;36247;51.952;6.146;2023-04-24T06:16:33;25.42;;;14.75;;
29908;SDS011;36247;51.952;6.146;2023-04-24T06:19:05;21.42;;;15.07;;
29908;SDS011;36247;51.952;6.146;2023-04-24T06:21:30;24.42;;;17.35;;
29908;SDS011;36247;51.952;6.146;2023-04-24T06:23:56;26.48;;;17.10;;
29908;SDS011;36247;51.952;6.146;2023-04-24T06:26:23;22.90;;;16.27;;
29908;SDS011;36247;51.952;6.146;2023-04-24T06:28:52;28.45;;;17.23;;
29908;SDS011;36247;51.952;6.146;2023-04-24T06:31:20;25.90;;;17.40;;
29908;SDS011;36247;51.952;6.146;2023-04-24T06:33:46;24.65;;;17.67;;
29908;SDS011;36247;51.952;6.146;2023-04-24T06:36:13;24.17;;;18.02;;
29908;SDS011;36247;51.952;6.146;2023-04-24T06:38:39;25.33;;;17.85;;
29908;SDS011;36247;51.952;6.146;2023-04-24T06:41:04;26.27;;;18.33;;
29908;SDS011;36247;51.952;6.146;2023-04-24T06:43:30;24.30;;;16.70;;
29908;SDS011;36247;51.952;6.146;2023-04-24T06:45:59;26.40;;;17.63;;
29908;SDS011;36247;51.952;6.146;2023-04-24T06:48:26;25.98;;;17.90;;
29908;SDS011;36247;51.952;6.146;2023-04-24T06:50:51;24.13;;;16.40;;
29908;SDS011;36247;51.952;6.146;2023-04-24T06:53:17;25.30;;;17.13;;
29908;SDS011;36247;51.952;6.146;2023-04-24T06:55:43;22.20;;;15.80;;
29908;SDS011;36247;51.952;6.146;2023-04-24T06:58:12;21.42;;;14.57;;
29908;SDS011;36247;51.952;6.146;2023-04-24T07:00:58;16.23;;;11.65;;
29908;SDS011;36247;51.952;6.146;2023-04-24T07:03:23;15.18;;;11.05;;
29908;SDS011;36247;51.952;6.146;2023-04-24T07:05:49;11.85;;;9.18;;
29908;SDS011;36247;51.952;6.146;2023-04-24T07:08:14;13.32;;;9.43;;
29908;SDS011;36247;51.952;6.146;2023-04-24T07:10:42;15.73;;;9.25;;
29908;SDS011;36247;51.952;6.146;2023-04-24T07:13:08;12.30;;;9.00;;
29908;SDS011;36247;51.952;6.146;2023-04-24T07:15:34;13.50;;;10.05;;
29908;SDS011;36247;51.952;6.146;2023-04-24T07:18:00;12.20;;;9.70;;
29908;SDS011;36247;51.952;6.146;2023-04-24T07:20:26;12.57;;;9.52;;
29908;SDS011;36247;51.952;6.146;2023-04-24T07:22:51;13.60;;;9.02;;
29908;SDS011;36247;51.952;6.146;2023-04-24T07:25:19;16.52;;;10.55;;
29908;SDS011;36247;51.952;6.146;2023-04-24T07:27:44;14.68;;;10.07;;
29908;SDS011;36247;51.952;6.146;2023-04-24T07:30:10;14.80;;;9.88;;
29908;SDS011;36247;51.952;6.146;2023-04-24T07:32:37;12.32;;;8.75;;
29908;SDS011;36247;51.952;6.146;2023-04-24T07:35:03;11.70;;;9.02;;
29908;SDS011;36247;51.952;6.146;2023-04-24T07:37:30;13.82;;;9.55;;
29908;SDS011;36247;51.952;6.146;2023-04-24T07:39:56;14.13;;;9.43;;
29908;SDS011;36247;51.952;6.146;2023-04-24T07:42:22;15.82;;;10.05;;
29908;SDS011;36247;51.952;6.146;2023-04-24T07:44:47;11.30;;;8.15;;
29908;SDS011;36247;51.952;6.146;2023-04-24T07:47:13;14.88;;;8.30;;
29908;SDS011;36247;51.952;6.146;2023-04-24T07:49:42;11.65;;;8.30;;
29908;SDS011;36247;51.952;6.146;2023-04-24T07:52:08;12.40;;;8.10;;
29908;SDS011;36247;51.952;6.146;2023-04-24T07:54:34;8.98;;;6.90;;
29908;SDS011;36247;51.952;6.146;2023-04-24T07:56:59;11.25;;;7.57;;
29908;SDS011;36247;51.952;6.146;2023-04-24T07:59:25;8.20;;;5.95;;
29908;SDS011;36247;51.952;6.146;2023-04-24T08:01:51;6.53;;;4.88;;
29908;SDS011;36247;51.952;6.146;2023-04-24T08:04:16;4.03;;;3.63;;
29908;SDS011;36247;51.952;6.146;2023-04-24T08:06:43;5.50;;;4.22;;
29908;SDS011;36247;51.952;6.146;2023-04-24T08:09:09;4.80;;;3.95;;
29908;SDS011;36247;51.952;6.146;2023-04-24T08:11:34;6.93;;;4.30;;
29908;SDS011;36247;51.952;6.146;2023-04-24T08:14:00;5.82;;;4.35;;
29908;SDS011;36247;51.952;6.146;2023-04-24T08:16:26;7.43;;;5.38;;
29908;SDS011;36247;51.952;6.146;2023-04-24T08:18:52;8.63;;;5.25;;
29908;SDS011;36247;51.952;6.146;2023-04-24T08:21:18;9.30;;;5.82;;
29908;SDS011;36247;51.952;6.146;2023-04-24T08:23:44;14.98;;;9.07;;
29908;SDS011;36247;51.952;6.146;2023-04-24T08:26:11;14.90;;;8.98;;
29908;SDS011;36247;51.952;6.146;2023-04-24T08:28:38;21.38;;;10.55;;
29908;SDS011;36247;51.952;6.146;2023-04-24T08:31:04;14.88;;;9.60;;
29908;SDS011;36247;51.952;6.146;2023-04-24T08:33:30;14.40;;;10.25;;
29908;SDS011;36247;51.952;6.146;2023-04-24T08:36:00;18.27;;;10.73;;
29908;SDS011;36247;51.952;6.146;2023-04-24T08:38:30;16.48;;;10.18;;
29908;SDS011;36247;51.952;6.146;2023-04-24T08:40:57;14.07;;;8.93;;
29908;SDS011;36247;51.952;6.146;2023-04-24T08:43:24;14.25;;;8.82;;
29908;SDS011;36247;51.952;6.146;2023-04-24T08:45:51;13.23;;;10.32;;
29908;SDS011;36247;51.952;6.146;2023-04-24T08:48:17;13.20;;;9.80;;
29908;SDS011;36247;51.952;6.146;2023-04-24T08:50:43;17.20;;;11.45;;
29908;SDS011;36247;51.952;6.146;2023-04-24T08:53:10;16.35;;;10.68;;
29908;SDS011;36247;51.952;6.146;2023-04-24T08:55:37;16.80;;;10.57;;
29908;SDS011;36247;51.952;6.146;2023-04-24T08:58:03;16.75;;;9.85;;
29908;SDS011;36247;51.952;6.146;2023-04-24T09:00:31;17.27;;;11.35;;
29908;SDS011;36247;51.952;6.146;2023-04-24T09:02:57;17.40;;;11.38;;
29908;SDS011;36247;51.952;6.146;2023-04-24T09:05:26;15.82;;;10.95;;
29908;SDS011;36247;51.952;6.146;2023-04-24T09:07:56;14.10;;;10.23;;
29908;SDS011;36247;51.952;6.146;2023-04-24T09:10:23;18.95;;;10.98;;
29908;SDS011;36247;51.952;6.146;2023-04-24T09:12:50;14.48;;;10.77;;
29908;SDS011;36247;51.952;6.146;2023-04-24T09:15:18;19.90;;;10.80;;
29908;SDS011;36247;51.952;6.146;2023-04-24T09:17:45;13.00;;;9.90;;
29908;SDS011;36247;51.952;6.146;2023-04-24T09:20:12;14.90;;;9.40;;
29908;SDS011;36247;51.952;6.146;2023-04-24T09:22:38;14.35;;;8.90;;
29908;SDS011;36247;51.952;6.146;2023-04-24T09:25:05;12.93;;;9.23;;
29908;SDS011;36247;51.952;6.146;2023-04-24T09:27:34;14.63;;;9.48;;
29908;SDS011;36247;51.952;6.146;2023-04-24T09:30:02;11.23;;;6.30;;
29908;SDS011;36247;51.952;6.146;2023-04-24T09:32:28;10.88;;;6.18;;
29908;SDS011;36247;51.952;6.146;2023-04-24T09:37:38;13.02;;;4.85;;
29908;SDS011;36247;51.952;6.146;2023-04-24T09:40:10;18.65;;;6.20;;
29908;SDS011;36247;51.952;6.146;2023-04-24T09:42:54;11.35;;;5.43;;
29908;SDS011;36247;51.952;6.146;2023-04-24T09:45:22;13.32;;;6.15;;
29908;SDS011;36247;51.952;6.146;2023-04-24T09:47:52;11.13;;;5.55;;
29908;SDS011;36247;51.952;6.146;2023-04-24T09:50:21;13.90;;;6.68;;
29908;SDS011;36247;51.952;6.146;2023-04-24T09:52:55;9.70;;;4.95;;
29908;SDS011;36247;51.952;6.146;2023-04-24T09:55:24;17.48;;;5.25;;
29908;SDS011;36247;51.952;6.146;2023-04-24T09:58:00;15.73;;;5.30;;
29908;SDS011;36247;51.952;6.146;2023-04-24T10:00:30;16.13;;;5.20;;
29908;SDS011;36247;51.952;6.146;2023-04-24T10:02:58;17.15;;;5.30;;
29908;SDS011;36247;51.952;6.146;2023-04-24T10:05:33;12.93;;;4.57;;
29908;SDS011;36247;51.952;6.146;2023-04-24T10:10:29;12.98;;;4.43;;
29908;SDS011;36247;51.952;6.146;2023-04-24T10:12:55;17.73;;;4.82;;
29908;SDS011;36247;51.952;6.146;2023-04-24T10:15:21;13.13;;;5.03;;
29908;SDS011;36247;51.952;6.146;2023-04-24T10:17:48;16.55;;;5.03;;
29908;SDS011;36247;51.952;6.146;2023-04-24T10:20:24;15.32;;;5.25;;
29908;SDS011;36247;51.952;6.146;2023-04-24T10:22:52;16.70;;;4.43;;
29908;SDS011;36247;51.952;6.146;2023-04-24T10:25:23;19.10;;;5.35;;
29908;SDS011;36247;51.952;6.146;2023-04-24T10:27:51;13.60;;;4.47;;
29908;SDS011;36247;51.952;6.146;2023-04-24T10:30:18;11.60;;;4.22;;
29908;SDS011;36247;51.952;6.146;2023-04-24T10:32:45;13.68;;;4.03;;
29908;SDS011;36247;51.952;6.146;2023-04-24T10:35:14;15.90;;;4.78;;
29908;SDS011;36247;51.952;6.146;2023-04-24T10:37:44;15.88;;;4.13;;
29908;SDS011;36247;51.952;6.146;2023-04-24T10:40:24;14.13;;;4.38;;
29908;SDS011;36247;51.952;6.146;2023-04-24T10:42:51;12.73;;;4.10;;
29908;SDS011;36247;51.952;6.146;2023-04-24T10:45:21;11.55;;;4.05;;
29908;SDS011;36247;51.952;6.146;2023-04-24T10:50:46;12.65;;;4.50;;
29908;SDS011;36247;51.952;6.146;2023-04-24T10:53:18;12.13;;;3.92;;
29908;SDS011;36247;51.952;6.146;2023-04-24T10:55:47;10.40;;;3.83;;
29908;SDS011;36247;51.952;6.146;2023-04-24T10:58:15;15.77;;;4.53;;
29908;SDS011;36247;51.952;6.146;2023-04-24T11:01:02;12.23;;;3.97;;
29908;SDS011;36247;51.952;6.146;2023-04-24T11:03:28;14.88;;;5.70;;
29908;SDS011;36247;51.952;6.146;2023-04-24T11:08:45;8.77;;;2.97;;
29908;SDS011;36247;51.952;6.146;2023-04-24T11:11:11;6.20;;;3.22;;
29908;SDS011;36247;51.952;6.146;2023-04-24T11:21:47;9.57;;;4.05;;
29908;SDS011;36247;51.952;6.146;2023-04-24T11:24:23;10.95;;;3.65;;
29908;SDS011;36247;51.952;6.146;2023-04-24T11:26:51;5.95;;;3.33;;
29908;SDS011;36247;51.952;6.146;2023-04-24T11:29:19;8.95;;;2.65;;
29908;SDS011;36247;51.952;6.146;2023-04-24T11:31:45;7.95;;;2.50;;
29908;SDS011;36247;51.952;6.146;2023-04-24T11:34:17;9.25;;;2.22;;
29908;SDS011;36247;51.952;6.146;2023-04-24T11:36:44;5.35;;;2.55;;
29908;SDS011;36247;51.952;6.146;2023-04-24T11:39:11;5.05;;;1.75;;
29908;SDS011;36247;51.952;6.146;2023-04-24T11:41:37;7.85;;;2.35;;
29908;SDS011;36247;51.952;6.146;2023-04-24T11:44:08;5.10;;;2.17;;
29908;SDS011;36247;51.952;6.146;2023-04-24T11:46:34;8.52;;;2.90;;
29908;SDS011;36247;51.952;6.146;2023-04-24T11:49:01;6.10;;;2.00;;
29908;SDS011;36247;51.952;6.146;2023-04-24T11:51:27;6.65;;;2.20;;
29908;SDS011;36247;51.952;6.146;2023-04-24T11:53:55;4.72;;;2.03;;
29908;SDS011;36247;51.952;6.146;2023-04-24T11:56:21;5.03;;;2.42;;
29908;SDS011;36247;51.952;6.146;2023-04-24T11:58:47;5.22;;;2.53;;
29908;SDS011;36247;51.952;6.146;2023-04-24T12:01:13;10.75;;;1.90;;
29908;SDS011;36247;51.952;6.146;2023-04-24T12:03:40;4.88;;;2.13;;
29908;SDS011;36247;51.952;6.146;2023-04-24T12:06:11;4.28;;;1.65;;
29908;SDS011;36247;51.952;6.146;2023-04-24T12:08:37;3.20;;;1.58;;
29908;SDS011;36247;51.952;6.146;2023-04-24T12:11:05;5.13;;;1.90;;
29908;SDS011;36247;51.952;6.146;2023-04-24T12:13:34;3.85;;;1.83;;
29908;SDS011;36247;51.952;6.146;2023-04-24T12:16:02;4.50;;;2.10;;
29908;SDS011;36247;51.952;6.146;2023-04-24T12:18:30;2.95;;;1.73;;
29908;SDS011;36247;51.952;6.146;2023-04-24T12:21:13;5.38;;;1.80;;
29908;SDS011;36247;51.952;6.146;2023-04-24T12:23:45;7.68;;;2.53;;
29908;SDS011;36247;51.952;6.146;2023-04-24T12:26:12;5.78;;;1.92;;
29908;SDS011;36247;51.952;6.146;2023-04-24T12:28:46;3.67;;;1.75;;
29908;SDS011;36247;51.952;6.146;2023-04-24T12:31:17;2.88;;;1.83;;
29908;SDS011;36247;51.952;6.146;2023-04-24T12:33:42;5.93;;;2.40;;
29908;SDS011;36247;51.952;6.146;2023-04-24T12:36:10;8.82;;;1.88;;
29908;SDS011;36247;51.952;6.146;2023-04-24T12:38:37;2.22;;;1.83;;
29908;SDS011;36247;51.952;6.146;2023-04-24T12:41:10;1.77;;;1.63;;
29908;SDS011;36247;51.952;6.146;2023-04-24T12:43:36;3.42;;;1.95;;
29908;SDS011;36247;51.952;6.146;2023-04-24T12:46:02;5.82;;;2.28;;
29908;SDS011;36247;51.952;6.146;2023-04-24T12:48:29;3.92;;;2.20;;
29908;SDS011;36247;51.952;6.146;2023-04-24T12:50:59;3.70;;;1.77;;
29908;SDS011;36247;51.952;6.146;2023-04-24T12:53:28;2.40;;;1.63;;
29908;SDS011;36247;51.952;6.146;2023-04-24T12:55:57;1.73;;;1.38;;
29908;SDS011;36247;51.952;6.146;2023-04-24T12:58:23;2.97;;;1.50;;
29908;SDS011;36247;51.952;6.146;2023-04-24T13:00:49;3.30;;;2.03;;
29908;SDS011;36247;51.952;6.146;2023-04-24T13:03:15;3.88;;;1.48;;
29908;SDS011;36247;51.952;6.146;2023-04-24T13:05:42;4.30;;;1.98;;
29908;SDS011;36247;51.952;6.146;2023-04-24T13:08:09;5.60;;;1.73;;
29908;SDS011;36247;51.952;6.146;2023-04-24T13:10:36;3.20;;;1.73;;
29908;SDS011;36247;51.952;6.146;2023-04-24T13:13:02;5.15;;;2.13;;
29908;SDS011;36247;51.952;6.146;2023-04-24T13:15:28;4.05;;;1.70;;
29908;SDS011;36247;51.952;6.146;2023-04-24T13:17:54;7.10;;;1.70;;
29908;SDS011;36247;51.952;6.146;2023-04-24T13:20:20;4.22;;;1.40;;
29908;SDS011;36247;51.952;6.146;2023-04-24T13:22:45;6.22;;;1.90;;
29908;SDS011;36247;51.952;6.146;2023-04-24T13:25:11;1.75;;;1.65;;
29908;SDS011;36247;51.952;6.146;2023-04-24T13:27:38;6.15;;;2.40;;
29908;SDS011;36247;51.952;6.146;2023-04-24T13:30:05;5.57;;;2.03;;
29908;SDS011;36247;51.952;6.146;2023-04-24T13:32:32;3.13;;;1.90;;
29908;SDS011;36247;51.952;6.146;2023-04-24T13:35:01;6.38;;;1.65;;
29908;SDS011;36247;51.952;6.146;2023-04-24T13:37:27;3.92;;;1.95;;
29908;SDS011;36247;51.952;6.146;2023-04-24T13:39:53;6.95;;;2.35;;
29908;SDS011;36247;51.952;6.146;2023-04-24T13:42:23;2.45;;;1.50;;
29908;SDS011;36247;51.952;6.146;2023-04-24T13:44:48;5.88;;;2.00;;
29908;SDS011;36247;51.952;6.146;2023-04-24T13:47:14;6.57;;;2.10;;
29908;SDS011;36247;51.952;6.146;2023-04-24T13:49:40;5.93;;;1.92;;
29908;SDS011;36247;51.952;6.146;2023-04-24T13:52:06;7.20;;;2.45;;
29908;SDS011;36247;51.952;6.146;2023-04-24T13:54:33;6.03;;;2.25;;
29908;SDS011;36247;51.952;6.146;2023-04-24T13:56:59;9.35;;;2.85;;
29908;SDS011;36247;51.952;6.146;2023-04-24T13:59:26;11.57;;;2.20;;
29908;SDS011;36247;51.952;6.146;2023-04-24T14:01:51;9.27;;;2.17;;
29908;SDS011;36247;51.952;6.146;2023-04-24T14:04:17;12.00;;;2.80;;
29908;SDS011;36247;51.952;6.146;2023-04-24T14:06:43;7.40;;;2.55;;
29908;SDS011;36247;51.952;6.146;2023-04-24T14:09:09;6.72;;;2.55;;
29908;SDS011;36247;51.952;6.146;2023-04-24T14:11:34;12.40;;;2.55;;
29908;SDS011;36247;51.952;6.146;2023-04-24T14:14:00;7.20;;;2.53;;
29908;SDS011;36247;51.952;6.146;2023-04-24T14:16:26;8.85;;;2.80;;
29908;SDS011;36247;51.952;6.146;2023-04-24T14:18:51;11.30;;;4.13;;
29908;SDS011;36247;51.952;6.146;2023-04-24T14:21:17;12.43;;;3.50;;
29908;SDS011;36247;51.952;6.146;2023-04-24T14:23:43;13.57;;;2.95;;
29908;SDS011;36247;51.952;6.146;2023-04-24T14:26:09;10.25;;;3.33;;
29908;SDS011;36247;51.952;6.146;2023-04-24T14:28:34;11.23;;;3.30;;
29908;SDS011;36247;51.952;6.146;2023-04-24T14:31:01;9.23;;;2.63;;
29908;SDS011;36247;51.952;6.146;2023-04-24T14:33:27;16.20;;;2.90;;
29908;SDS011;36247;51.952;6.146;2023-04-24T14:35:52;10.48;;;3.33;;
29908;SDS011;36247;51.952;6.146;2023-04-24T14:38:18;9.55;;;2.70;;
29908;SDS011;36247;51.952;6.146;2023-04-24T14:40:44;7.55;;;2.70;;
29908;SDS011;36247;51.952;6.146;2023-04-24T14:43:09;6.25;;;2.40;;
29908;SDS011;36247;51.952;6.146;2023-04-24T14:45:36;10.05;;;3.10;;
29908;SDS011;36247;51.952;6.146;2023-04-24T14:48:04;11.20;;;3.15;;
29908;SDS011;36247;51.952;6.146;2023-04-24T14:50:34;13.18;;;3.88;;
29908;SDS011;36247;51.952;6.146;2023-04-24T14:53:05;9.52;;;3.22;;